sensor_id;sensor_type;location;lat;lon;timestamp;temperature;humidity
240;DHT22;104;53.590;10.004;2023-02-28T00:06:09;-1.50;95.90
240;DHT22;104;53.590;10.004;2023-02-28T00:08:36;-1.50;95.90
240;DHT22;104;53.590;10.004;2023-02-28T00:11:04;-1.40;96.00
240;DHT22;104;53.590;10.004;2023-02-28T00:16:03;-1.50;95.80
240;DHT22;104;53.590;10.004;2023-02-28T00:48:12;-1.60;96.60
240;DHT22;104;53.590;10.004;2023-02-28T01:15:14;-1.80;96.80
240;DHT22;104;53.590;10.004;2023-02-28T01:22:39;-1.80;96.80
240;DHT22;104;53.590;10.004;2023-02-28T01:25:06;-1.80;96.80
240;DHT22;104;53.590;10.004;2023-02-28T01:30:01;-1.90;96.80
240;DHT22;104;53.590;10.004;2023-02-28T01:32:28;-1.90;96.80
240;DHT22;104;53.590;10.004;2023-02-28T01:37:22;-1.90;96.80
240;DHT22;104;53.590;10.004;2023-02-28T01:39:51;-1.90;96.80
240;DHT22;104;53.590;10.004;2023-02-28T01:45:00;-1.90;96.80
240;DHT22;104;53.590;10.004;2023-02-28T01:47:30;-1.90;96.80
240;DHT22;104;53.590;10.004;2023-02-28T01:49:59;-1.90;96.80
240;DHT22;104;53.590;10.004;2023-02-28T01:52:28;-1.90;96.80
240;DHT22;104;53.590;10.004;2023-02-28T01:54:59;-1.90;96.80
240;DHT22;104;53.590;10.004;2023-02-28T01:57:32;-1.90;96.80
240;DHT22;104;53.590;10.004;2023-02-28T02:00:06;-2.00;96.80
240;DHT22;104;53.590;10.004;2023-02-28T02:02:35;-2.00;96.80
240;DHT22;104;53.590;10.004;2023-02-28T02:05:06;-1.90;96.80
240;DHT22;104;53.590;10.004;2023-02-28T02:07:35;-1.90;96.80
240;DHT22;104;53.590;10.004;2023-02-28T02:10:06;-2.00;96.80
240;DHT22;104;53.590;10.004;2023-02-28T02:12:50;-2.00;96.80
240;DHT22;104;53.590;10.004;2023-02-28T02:17:57;-2.00;96.80
240;DHT22;104;53.590;10.004;2023-02-28T02:20:45;-2.00;96.80
240;DHT22;104;53.590;10.004;2023-02-28T02:26:33;-2.00;96.80
240;DHT22;104;53.590;10.004;2023-02-28T02:29:30;-2.10;96.80
240;DHT22;104;53.590;10.004;2023-02-28T02:35:12;-2.00;96.80
240;DHT22;104;53.590;10.004;2023-02-28T02:37:43;-2.10;96.80
240;DHT22;104;53.590;10.004;2023-02-28T02:40:17;-2.10;96.80
240;DHT22;104;53.590;10.004;2023-02-28T02:42:50;-2.10;96.80
240;DHT22;104;53.590;10.004;2023-02-28T02:45:22;-2.10;96.80
240;DHT22;104;53.590;10.004;2023-02-28T02:47:51;-2.20;96.80
240;DHT22;104;53.590;10.004;2023-02-28T02:50:23;-2.10;96.80
240;DHT22;104;53.590;10.004;2023-02-28T02:52:55;-2.10;96.80
240;DHT22;104;53.590;10.004;2023-02-28T02:55:23;-2.20;96.80
240;DHT22;104;53.590;10.004;2023-02-28T02:57:53;-2.20;96.80
240;DHT22;104;53.590;10.004;2023-02-28T03:00:25;-2.20;96.80
240;DHT22;104;53.590;10.004;2023-02-28T03:05:26;-2.20;96.80
240;DHT22;104;53.590;10.004;2023-02-28T03:07:53;-2.20;96.80
240;DHT22;104;53.590;10.004;2023-02-28T03:10:38;-2.10;96.80
240;DHT22;104;53.590;10.004;2023-02-28T03:13:27;-2.10;96.80
240;DHT22;104;53.590;10.004;2023-02-28T03:18:53;-2.10;96.80
240;DHT22;104;53.590;10.004;2023-02-28T03:21:26;-2.10;96.80
240;DHT22;104;53.590;10.004;2023-02-28T03:23:59;-2.20;96.80
240;DHT22;104;53.590;10.004;2023-02-28T03:26:31;-2.20;96.80
240;DHT22;104;53.590;10.004;2023-02-28T03:29:04;-2.20;96.80
240;DHT22;104;53.590;10.004;2023-02-28T03:31:37;-2.20;96.80
240;DHT22;104;53.590;10.004;2023-02-28T03:34:08;-2.20;96.80
240;DHT22;104;53.590;10.004;2023-02-28T03:39:11;-2.10;96.80
240;DHT22;104;53.590;10.004;2023-02-28T03:41:44;-2.00;96.80
240;DHT22;104;53.590;10.004;2023-02-28T03:44:18;-2.00;96.80
240;DHT22;104;53.590;10.004;2023-02-28T03:46:52;-2.00;96.80
240;DHT22;104;53.590;10.004;2023-02-28T03:49:23;-2.10;96.80
240;DHT22;104;53.590;10.004;2023-02-28T03:51:54;-2.00;96.80
240;DHT22;104;53.590;10.004;2023-02-28T03:56:56;-2.00;96.80
240;DHT22;104;53.590;10.004;2023-02-28T03:59:28;-2.10;96.80
240;DHT22;104;53.590;10.004;2023-02-28T04:01:57;-2.10;96.80
240;DHT22;104;53.590;10.004;2023-02-28T04:04:25;-2.00;96.80
240;DHT22;104;53.590;10.004;2023-02-28T04:09:28;-2.10;96.80
240;DHT22;104;53.590;10.004;2023-02-28T04:11:55;-2.10;96.80
240;DHT22;104;53.590;10.004;2023-02-28T04:14:22;-2.10;96.80
240;DHT22;104;53.590;10.004;2023-02-28T04:16:49;-2.10;96.80
240;DHT22;104;53.590;10.004;2023-02-28T04:19:18;-2.00;96.80
240;DHT22;104;53.590;10.004;2023-02-28T04:21:47;-2.10;96.80
240;DHT22;104;53.590;10.004;2023-02-28T04:24:18;-2.00;96.80
240;DHT22;104;53.590;10.004;2023-02-28T04:26:47;-2.00;96.80
240;DHT22;104;53.590;10.004;2023-02-28T04:29:18;-2.10;96.80
240;DHT22;104;53.590;10.004;2023-02-28T04:34:13;-2.00;96.80
240;DHT22;104;53.590;10.004;2023-02-28T04:36:40;-2.00;96.80
240;DHT22;104;53.590;10.004;2023-02-28T04:39:07;-2.00;96.80
240;DHT22;104;53.590;10.004;2023-02-28T04:44:04;-2.00;96.80
240;DHT22;104;53.590;10.004;2023-02-28T04:46:31;-2.00;96.80
240;DHT22;104;53.590;10.004;2023-02-28T04:53:52;-2.00;96.80
240;DHT22;104;53.590;10.004;2023-02-28T04:56:19;-2.00;96.80
240;DHT22;104;53.590;10.004;2023-02-28T04:58:48;-2.00;96.80
240;DHT22;104;53.590;10.004;2023-02-28T05:01:20;-2.00;96.80
240;DHT22;104;53.590;10.004;2023-02-28T05:03:48;-2.00;96.80
240;DHT22;104;53.590;10.004;2023-02-28T05:06:15;-2.00;96.80
240;DHT22;104;53.590;10.004;2023-02-28T05:08:42;-2.00;96.80
240;DHT22;104;53.590;10.004;2023-02-28T05:11:14;-2.00;96.80
240;DHT22;104;53.590;10.004;2023-02-28T05:16:10;-2.00;96.80
240;DHT22;104;53.590;10.004;2023-02-28T05:21:05;-2.00;96.80
240;DHT22;104;53.590;10.004;2023-02-28T05:23:32;-2.00;96.80
240;DHT22;104;53.590;10.004;2023-02-28T05:35:50;-2.00;96.80
240;DHT22;104;53.590;10.004;2023-02-28T05:43:11;-2.00;96.80
240;DHT22;104;53.590;10.004;2023-02-28T05:48:06;-2.00;96.80
240;DHT22;104;53.590;10.004;2023-02-28T05:50:34;-2.00;96.80
240;DHT22;104;53.590;10.004;2023-02-28T05:53:01;-2.00;96.80
240;DHT22;104;53.590;10.004;2023-02-28T05:55:28;-2.00;96.80
240;DHT22;104;53.590;10.004;2023-02-28T05:57:55;-1.90;96.60
240;DHT22;104;53.590;10.004;2023-02-28T06:00:22;-1.90;96.30
240;DHT22;104;53.590;10.004;2023-02-28T06:05:18;-2.00;96.20
240;DHT22;104;53.590;10.004;2023-02-28T06:10:14;-1.90;96.00
240;DHT22;104;53.590;10.004;2023-02-28T06:12:41;-1.90;95.70
240;DHT22;104;53.590;10.004;2023-02-28T06:15:12;-1.80;95.50
240;DHT22;104;53.590;10.004;2023-02-28T06:17:40;-1.80;93.80
240;DHT22;104;53.590;10.004;2023-02-28T06:27:32;-1.50;92.40
240;DHT22;104;53.590;10.004;2023-02-28T06:29:59;-1.40;92.00
240;DHT22;104;53.590;10.004;2023-02-28T06:32:26;-1.40;91.10
240;DHT22;104;53.590;10.004;2023-02-28T06:37:22;-1.30;90.40
240;DHT22;104;53.590;10.004;2023-02-28T06:39:51;-1.20;90.30
240;DHT22;104;53.590;10.004;2023-02-28T06:42:20;-1.20;90.00
240;DHT22;104;53.590;10.004;2023-02-28T06:49:42;-1.20;88.50
240;DHT22;104;53.590;10.004;2023-02-28T06:52:10;-1.20;88.40
240;DHT22;104;53.590;10.004;2023-02-28T06:54:37;-1.20;88.30
240;DHT22;104;53.590;10.004;2023-02-28T06:59:33;-1.10;87.60
240;DHT22;104;53.590;10.004;2023-02-28T07:04:28;-1.10;87.30
240;DHT22;104;53.590;10.004;2023-02-28T07:06:55;-0.90;86.90
240;DHT22;104;53.590;10.004;2023-02-28T07:09:22;-0.80;86.50
240;DHT22;104;53.590;10.004;2023-02-28T07:16:45;-0.70;85.30
240;DHT22;104;53.590;10.004;2023-02-28T07:24:10;-0.70;84.70
240;DHT22;104;53.590;10.004;2023-02-28T07:26:37;-0.60;84.60
240;DHT22;104;53.590;10.004;2023-02-28T07:29:04;-0.50;84.70
240;DHT22;104;53.590;10.004;2023-02-28T07:41:22;-0.20;84.10
240;DHT22;104;53.590;10.004;2023-02-28T07:48:48;0.00;84.30
240;DHT22;104;53.590;10.004;2023-02-28T07:53:43;0.20;83.80
240;DHT22;104;53.590;10.004;2023-02-28T07:56:10;0.20;83.50
240;DHT22;104;53.590;10.004;2023-02-28T08:03:33;0.50;83.50
240;DHT22;104;53.590;10.004;2023-02-28T08:18:21;0.80;82.00
240;DHT22;104;53.590;10.004;2023-02-28T08:20:48;0.90;81.50
240;DHT22;104;53.590;10.004;2023-02-28T08:30:38;1.20;80.70
240;DHT22;104;53.590;10.004;2023-02-28T08:33:06;1.30;80.60
240;DHT22;104;53.590;10.004;2023-02-28T08:42:58;1.50;77.60
240;DHT22;104;53.590;10.004;2023-02-28T08:45:26;1.50;78.20
240;DHT22;104;53.590;10.004;2023-02-28T08:50:21;1.70;77.60
240;DHT22;104;53.590;10.004;2023-02-28T08:55:15;1.70;77.50
240;DHT22;104;53.590;10.004;2023-02-28T08:57:43;1.80;78.00
240;DHT22;104;53.590;10.004;2023-02-28T09:05:09;2.00;76.80
240;DHT22;104;53.590;10.004;2023-02-28T09:07:36;2.10;76.30
240;DHT22;104;53.590;10.004;2023-02-28T09:10:04;2.10;76.30
240;DHT22;104;53.590;10.004;2023-02-28T09:12:34;2.20;76.60
240;DHT22;104;53.590;10.004;2023-02-28T09:17:30;2.30;75.10
240;DHT22;104;53.590;10.004;2023-02-28T09:19:57;2.30;74.20
240;DHT22;104;53.590;10.004;2023-02-28T09:22:24;2.20;74.20
240;DHT22;104;53.590;10.004;2023-02-28T09:24:51;2.30;74.30
240;DHT22;104;53.590;10.004;2023-02-28T09:29:46;2.30;73.70
240;DHT22;104;53.590;10.004;2023-02-28T09:32:13;2.30;74.30
240;DHT22;104;53.590;10.004;2023-02-28T09:34:41;2.50;74.10
240;DHT22;104;53.590;10.004;2023-02-28T09:39:35;2.80;74.10
240;DHT22;104;53.590;10.004;2023-02-28T09:42:03;2.80;73.10
240;DHT22;104;53.590;10.004;2023-02-28T09:44:36;2.80;72.20
240;DHT22;104;53.590;10.004;2023-02-28T09:47:10;2.70;72.80
240;DHT22;104;53.590;10.004;2023-02-28T09:52:13;2.90;72.80
240;DHT22;104;53.590;10.004;2023-02-28T09:54:40;3.00;72.80
240;DHT22;104;53.590;10.004;2023-02-28T09:57:13;3.10;71.60
240;DHT22;104;53.590;10.004;2023-02-28T10:02:38;3.10;72.50
240;DHT22;104;53.590;10.004;2023-02-28T10:05:09;3.20;72.20
240;DHT22;104;53.590;10.004;2023-02-28T10:07:50;3.30;71.60
240;DHT22;104;53.590;10.004;2023-02-28T10:10:24;3.40;71.30
240;DHT22;104;53.590;10.004;2023-02-28T10:12:56;3.40;70.30
240;DHT22;104;53.590;10.004;2023-02-28T10:15:29;3.30;72.20
240;DHT22;104;53.590;10.004;2023-02-28T10:18:00;3.30;72.00
240;DHT22;104;53.590;10.004;2023-02-28T10:20:28;3.50;71.90
240;DHT22;104;53.590;10.004;2023-02-28T10:23:03;3.60;72.60
240;DHT22;104;53.590;10.004;2023-02-28T10:25:35;3.60;72.70
240;DHT22;104;53.590;10.004;2023-02-28T10:28:10;3.70;73.20
240;DHT22;104;53.590;10.004;2023-02-28T10:30:39;3.60;72.80
240;DHT22;104;53.590;10.004;2023-02-28T10:33:17;3.70;72.60
240;DHT22;104;53.590;10.004;2023-02-28T10:35:46;3.80;71.90
240;DHT22;104;53.590;10.004;2023-02-28T10:38:18;3.90;72.50
240;DHT22;104;53.590;10.004;2023-02-28T10:40:46;3.90;71.80
240;DHT22;104;53.590;10.004;2023-02-28T10:43:22;4.00;71.90
240;DHT22;104;53.590;10.004;2023-02-28T10:45:56;4.00;72.30
240;DHT22;104;53.590;10.004;2023-02-28T10:48:32;4.10;72.20
240;DHT22;104;53.590;10.004;2023-02-28T10:50:59;4.20;71.50
240;DHT22;104;53.590;10.004;2023-02-28T10:53:33;4.30;71.30
240;DHT22;104;53.590;10.004;2023-02-28T10:56:02;4.40;71.60
240;DHT22;104;53.590;10.004;2023-02-28T10:58:31;4.50;71.30
240;DHT22;104;53.590;10.004;2023-02-28T11:01:13;4.50;71.00
240;DHT22;104;53.590;10.004;2023-02-28T11:03:40;4.50;70.20
240;DHT22;104;53.590;10.004;2023-02-28T11:08:48;4.40;70.80
240;DHT22;104;53.590;10.004;2023-02-28T11:11:20;4.60;71.00
240;DHT22;104;53.590;10.004;2023-02-28T11:13:51;4.80;70.10
240;DHT22;104;53.590;10.004;2023-02-28T11:16:19;4.90;69.90
240;DHT22;104;53.590;10.004;2023-02-28T11:18:50;5.00;69.60
240;DHT22;104;53.590;10.004;2023-02-28T11:21:26;5.30;67.90
240;DHT22;104;53.590;10.004;2023-02-28T11:24:00;5.40;68.60
240;DHT22;104;53.590;10.004;2023-02-28T11:29:21;5.40;67.20
240;DHT22;104;53.590;10.004;2023-02-28T11:32:18;5.40;67.70
240;DHT22;104;53.590;10.004;2023-02-28T11:34:47;5.50;67.60
240;DHT22;104;53.590;10.004;2023-02-28T11:37:27;5.40;67.10
240;DHT22;104;53.590;10.004;2023-02-28T11:42:36;5.10;68.10
240;DHT22;104;53.590;10.004;2023-02-28T11:45:21;5.00;68.30
240;DHT22;104;53.590;10.004;2023-02-28T11:50:41;5.10;68.80
240;DHT22;104;53.590;10.004;2023-02-28T11:55:47;5.30;68.60
240;DHT22;104;53.590;10.004;2023-02-28T11:58:28;5.40;67.90
240;DHT22;104;53.590;10.004;2023-02-28T12:06:43;5.70;66.50
240;DHT22;104;53.590;10.004;2023-02-28T12:09:34;5.70;67.40
240;DHT22;104;53.590;10.004;2023-02-28T12:12:17;5.80;66.40
240;DHT22;104;53.590;10.004;2023-02-28T12:14:57;5.80;66.40
240;DHT22;104;53.590;10.004;2023-02-28T12:17:39;5.80;66.60
240;DHT22;104;53.590;10.004;2023-02-28T12:20:17;5.70;66.40
240;DHT22;104;53.590;10.004;2023-02-28T12:22:55;5.50;66.80
240;DHT22;104;53.590;10.004;2023-02-28T12:25:50;5.50;67.20
240;DHT22;104;53.590;10.004;2023-02-28T12:28:25;5.40;67.10
240;DHT22;104;53.590;10.004;2023-02-28T12:30:57;5.40;67.50
240;DHT22;104;53.590;10.004;2023-02-28T12:33:28;5.60;66.90
240;DHT22;104;53.590;10.004;2023-02-28T12:36:00;5.60;67.10
240;DHT22;104;53.590;10.004;2023-02-28T12:38:36;5.70;67.30
240;DHT22;104;53.590;10.004;2023-02-28T12:41:08;5.80;66.20
240;DHT22;104;53.590;10.004;2023-02-28T12:43:43;5.60;66.20
240;DHT22;104;53.590;10.004;2023-02-28T12:46:13;5.60;66.20
240;DHT22;104;53.590;10.004;2023-02-28T12:48:46;5.50;66.70
240;DHT22;104;53.590;10.004;2023-02-28T12:51:15;5.50;66.40
240;DHT22;104;53.590;10.004;2023-02-28T12:53:53;5.60;66.50
240;DHT22;104;53.590;10.004;2023-02-28T12:56:29;5.70;66.10
240;DHT22;104;53.590;10.004;2023-02-28T12:59:01;5.70;66.10
240;DHT22;104;53.590;10.004;2023-02-28T13:01:52;5.70;65.80
240;DHT22;104;53.590;10.004;2023-02-28T13:04:51;5.80;66.20
240;DHT22;104;53.590;10.004;2023-02-28T13:07:52;5.90;65.70
240;DHT22;104;53.590;10.004;2023-02-28T13:10:23;5.90;66.00
240;DHT22;104;53.590;10.004;2023-02-28T13:12:51;5.90;65.80
240;DHT22;104;53.590;10.004;2023-02-28T13:15:23;5.90;65.40
240;DHT22;104;53.590;10.004;2023-02-28T13:17:52;5.70;65.90
240;DHT22;104;53.590;10.004;2023-02-28T13:20:21;5.70;66.00
240;DHT22;104;53.590;10.004;2023-02-28T13:22:51;5.80;65.80
240;DHT22;104;53.590;10.004;2023-02-28T13:25:52;5.80;65.80
240;DHT22;104;53.590;10.004;2023-02-28T13:35:17;6.10;66.30
240;DHT22;104;53.590;10.004;2023-02-28T13:38:21;5.90;66.20
240;DHT22;104;53.590;10.004;2023-02-28T13:48:38;6.20;66.20
240;DHT22;104;53.590;10.004;2023-02-28T13:54:39;6.00;66.00
240;DHT22;104;53.590;10.004;2023-02-28T13:59:49;5.80;66.40
240;DHT22;104;53.590;10.004;2023-02-28T14:02:35;5.60;66.60
240;DHT22;104;53.590;10.004;2023-02-28T14:05:06;5.50;67.20
240;DHT22;104;53.590;10.004;2023-02-28T14:07:44;5.70;67.20
240;DHT22;104;53.590;10.004;2023-02-28T14:13:11;5.50;67.90
240;DHT22;104;53.590;10.004;2023-02-28T14:15:42;5.60;67.80
240;DHT22;104;53.590;10.004;2023-02-28T14:18:21;5.70;67.70
240;DHT22;104;53.590;10.004;2023-02-28T14:20:52;5.50;67.30
240;DHT22;104;53.590;10.004;2023-02-28T14:23:33;5.40;68.60
240;DHT22;104;53.590;10.004;2023-02-28T14:41:24;5.30;69.00
240;DHT22;104;53.590;10.004;2023-02-28T14:48:49;5.10;69.80
240;DHT22;104;53.590;10.004;2023-02-28T14:58:53;4.90;69.70
240;DHT22;104;53.590;10.004;2023-02-28T15:09:07;4.80;70.80
240;DHT22;104;53.590;10.004;2023-02-28T15:51:54;3.80;74.30
240;DHT22;104;53.590;10.004;2023-02-28T15:59:23;3.70;74.70
240;DHT22;104;53.590;10.004;2023-02-28T16:02:17;3.70;74.90
240;DHT22;104;53.590;10.004;2023-02-28T16:12:20;3.50;75.60
240;DHT22;104;53.590;10.004;2023-02-28T16:17:22;3.30;76.60
240;DHT22;104;53.590;10.004;2023-02-28T16:19:50;3.30;76.80
240;DHT22;104;53.590;10.004;2023-02-28T16:27:20;3.20;77.40
240;DHT22;104;53.590;10.004;2023-02-28T16:29:48;3.20;77.30
240;DHT22;104;53.590;10.004;2023-02-28T16:32:16;3.20;77.70
240;DHT22;104;53.590;10.004;2023-02-28T16:37:14;3.20;77.70
240;DHT22;104;53.590;10.004;2023-02-28T16:52:15;3.00;78.70
240;DHT22;104;53.590;10.004;2023-02-28T17:44:38;3.20;79.00
240;DHT22;104;53.590;10.004;2023-02-28T18:06:53;3.00;80.00
240;DHT22;104;53.590;10.004;2023-02-28T19:21:24;2.10;83.60
240;DHT22;104;53.590;10.004;2023-02-28T19:28:47;1.80;84.40
240;DHT22;104;53.590;10.004;2023-02-28T19:31:16;1.80;84.60
240;DHT22;104;53.590;10.004;2023-02-28T19:33:44;1.70;85.10
240;DHT22;104;53.590;10.004;2023-02-28T19:36:13;1.70;85.10
240;DHT22;104;53.590;10.004;2023-02-28T19:38:41;1.70;85.20
240;DHT22;104;53.590;10.004;2023-02-28T19:41:10;1.70;85.30
240;DHT22;104;53.590;10.004;2023-02-28T19:43:37;1.60;85.40
240;DHT22;104;53.590;10.004;2023-02-28T19:46:05;1.60;85.50
240;DHT22;104;53.590;10.004;2023-02-28T19:51:02;1.40;86.60
240;DHT22;104;53.590;10.004;2023-02-28T19:53:33;1.30;87.00
240;DHT22;104;53.590;10.004;2023-02-28T19:58:29;1.40;87.30
240;DHT22;104;53.590;10.004;2023-02-28T20:00:57;1.50;87.30
240;DHT22;104;53.590;10.004;2023-02-28T20:03:25;1.50;87.20
240;DHT22;104;53.590;10.004;2023-02-28T20:05:58;1.50;86.80
240;DHT22;104;53.590;10.004;2023-02-28T20:08:26;1.50;86.80
240;DHT22;104;53.590;10.004;2023-02-28T20:10:54;1.50;86.90
240;DHT22;104;53.590;10.004;2023-02-28T20:20:44;1.40;87.10
240;DHT22;104;53.590;10.004;2023-02-28T20:25:38;1.40;87.00
240;DHT22;104;53.590;10.004;2023-02-28T20:28:08;1.40;87.10
240;DHT22;104;53.590;10.004;2023-02-28T20:33:07;1.30;87.80
240;DHT22;104;53.590;10.004;2023-02-28T20:45:24;1.10;88.30
240;DHT22;104;53.590;10.004;2023-02-28T20:47:51;1.00;88.80
240;DHT22;104;53.590;10.004;2023-02-28T20:50:19;1.00;89.20
240;DHT22;104;53.590;10.004;2023-02-28T20:55:13;0.90;89.50
240;DHT22;104;53.590;10.004;2023-02-28T21:00:08;0.90;89.90
240;DHT22;104;53.590;10.004;2023-02-28T21:02:42;1.00;89.80
240;DHT22;104;53.590;10.004;2023-02-28T21:05:09;1.10;89.70
240;DHT22;104;53.590;10.004;2023-02-28T21:07:36;1.10;89.80
240;DHT22;104;53.590;10.004;2023-02-28T21:12:30;1.10;90.00
240;DHT22;104;53.590;10.004;2023-02-28T21:14:57;1.30;89.70
240;DHT22;104;53.590;10.004;2023-02-28T21:22:20;1.30;89.30
240;DHT22;104;53.590;10.004;2023-02-28T21:24:46;1.50;88.90
240;DHT22;104;53.590;10.004;2023-02-28T21:34:35;1.60;88.70
240;DHT22;104;53.590;10.004;2023-02-28T21:37:04;1.60;88.50
240;DHT22;104;53.590;10.004;2023-02-28T21:39:31;1.60;88.70
240;DHT22;104;53.590;10.004;2023-02-28T21:41:59;1.50;88.80
240;DHT22;104;53.590;10.004;2023-02-28T21:44:28;1.50;88.70
240;DHT22;104;53.590;10.004;2023-02-28T21:46:55;1.50;88.80
240;DHT22;104;53.590;10.004;2023-02-28T21:49:26;1.50;88.80
240;DHT22;104;53.590;10.004;2023-02-28T21:51:53;1.50;88.70
240;DHT22;104;53.590;10.004;2023-02-28T21:54:22;1.50;88.60
240;DHT22;104;53.590;10.004;2023-02-28T21:56:50;1.50;88.50
240;DHT22;104;53.590;10.004;2023-02-28T21:59:17;1.50;88.40
240;DHT22;104;53.590;10.004;2023-02-28T22:01:44;1.50;88.40
240;DHT22;104;53.590;10.004;2023-02-28T22:04:15;1.50;88.70
240;DHT22;104;53.590;10.004;2023-02-28T22:06:46;1.50;88.80
240;DHT22;104;53.590;10.004;2023-02-28T22:09:14;1.50;88.90
240;DHT22;104;53.590;10.004;2023-02-28T22:11:43;1.50;89.00
240;DHT22;104;53.590;10.004;2023-02-28T22:14:10;1.50;88.90
240;DHT22;104;53.590;10.004;2023-02-28T22:16:37;1.40;89.20
240;DHT22;104;53.590;10.004;2023-02-28T22:19:05;1.50;89.20
240;DHT22;104;53.590;10.004;2023-02-28T22:21:33;1.50;89.00
240;DHT22;104;53.590;10.004;2023-02-28T22:24:00;1.50;89.00
240;DHT22;104;53.590;10.004;2023-02-28T22:26:27;1.50;88.80
240;DHT22;104;53.590;10.004;2023-02-28T22:28:56;1.50;89.00
240;DHT22;104;53.590;10.004;2023-02-28T22:31:26;1.50;89.10
240;DHT22;104;53.590;10.004;2023-02-28T22:33:55;1.50;89.10
240;DHT22;104;53.590;10.004;2023-02-28T22:36:22;1.50;89.00
240;DHT22;104;53.590;10.004;2023-02-28T22:38:50;1.50;89.00
240;DHT22;104;53.590;10.004;2023-02-28T22:43:50;1.60;88.90
240;DHT22;104;53.590;10.004;2023-02-28T22:46:20;1.60;89.00
240;DHT22;104;53.590;10.004;2023-02-28T22:56:14;1.60;88.60
240;DHT22;104;53.590;10.004;2023-02-28T22:58:41;1.60;88.70
240;DHT22;104;53.590;10.004;2023-02-28T23:01:10;1.60;88.80
240;DHT22;104;53.590;10.004;2023-02-28T23:03:39;1.70;88.10
240;DHT22;104;53.590;10.004;2023-02-28T23:06:15;1.70;88.00
240;DHT22;104;53.590;10.004;2023-02-28T23:08:43;1.70;88.00
240;DHT22;104;53.590;10.004;2023-02-28T23:11:17;1.60;88.00
240;DHT22;104;53.590;10.004;2023-02-28T23:13:44;1.60;88.00
240;DHT22;104;53.590;10.004;2023-02-28T23:16:24;1.60;88.10
240;DHT22;104;53.590;10.004;2023-02-28T23:18:54;1.60;88.20
240;DHT22;104;53.590;10.004;2023-02-28T23:21:22;1.50;88.10
240;DHT22;104;53.590;10.004;2023-02-28T23:23:49;1.50;88.30
240;DHT22;104;53.590;10.004;2023-02-28T23:26:16;1.50;88.20
240;DHT22;104;53.590;10.004;2023-02-28T23:28:43;1.50;88.60
240;DHT22;104;53.590;10.004;2023-02-28T23:31:10;1.50;88.50
240;DHT22;104;53.590;10.004;2023-02-28T23:33:38;1.30;88.70
240;DHT22;104;53.590;10.004;2023-02-28T23:36:08;1.30;89.00
240;DHT22;104;53.590;10.004;2023-02-28T23:38:37;1.30;89.10
240;DHT22;104;53.590;10.004;2023-02-28T23:43:33;1.20;89.20
240;DHT22;104;53.590;10.004;2023-02-28T23:46:00;1.20;89.30
240;DHT22;104;53.590;10.004;2023-02-28T23:50:59;1.10;89.60
240;DHT22;104;53.590;10.004;2023-02-28T23:53:30;1.20;89.50
240;DHT22;104;53.590;10.004;2023-02-28T23:55:58;1.20;89.20
240;DHT22;104;53.590;10.004;2023-02-28T23:58:26;1.20;89.20
